sensor_id;sensor_type;location;lat;lon;timestamp;temperature;humidity
63313;DHT22;49442;45.640;13.812;2023-12-20T00:02:19;6.70;99.90
63313;DHT22;49442;45.640;13.812;2023-12-20T00:04:44;6.80;99.90
63313;DHT22;49442;45.640;13.812;2023-12-20T00:07:10;6.80;99.90
63313;DHT22;49442;45.640;13.812;2023-12-20T00:09:36;6.90;99.90
63313;DHT22;49442;45.640;13.812;2023-12-20T00:12:01;6.80;99.90
63313;DHT22;49442;45.640;13.812;2023-12-20T00:14:27;6.80;99.90
63313;DHT22;49442;45.640;13.812;2023-12-20T00:16:53;6.80;99.90
63313;DHT22;49442;45.640;13.812;2023-12-20T00:19:19;6.70;99.90
63313;DHT22;49442;45.640;13.812;2023-12-20T00:21:45;6.60;99.90
63313;DHT22;49442;45.640;13.812;2023-12-20T00:24:11;6.60;99.90
63313;DHT22;49442;45.640;13.812;2023-12-20T00:26:36;6.70;99.90
63313;DHT22;49442;45.640;13.812;2023-12-20T00:29:02;6.70;99.90
63313;DHT22;49442;45.640;13.812;2023-12-20T00:31:28;6.70;99.90
63313;DHT22;49442;45.640;13.812;2023-12-20T00:33:53;6.80;99.90
63313;DHT22;49442;45.640;13.812;2023-12-20T00:36:20;6.90;99.90
63313;DHT22;49442;45.640;13.812;2023-12-20T00:38:45;6.80;99.90
63313;DHT22;49442;45.640;13.812;2023-12-20T00:41:11;6.80;99.90
63313;DHT22;49442;45.640;13.812;2023-12-20T00:43:37;6.70;99.90
63313;DHT22;49442;45.640;13.812;2023-12-20T00:46:02;6.70;99.90
63313;DHT22;49442;45.640;13.812;2023-12-20T00:48:28;6.60;99.90
63313;DHT22;49442;45.640;13.812;2023-12-20T00:50:56;6.60;99.90
63313;DHT22;49442;45.640;13.812;2023-12-20T00:53:23;6.70;99.90
63313;DHT22;49442;45.640;13.812;2023-12-20T00:55:48;6.70;99.90
63313;DHT22;49442;45.640;13.812;2023-12-20T00:58:15;6.80;99.90
63313;DHT22;49442;45.640;13.812;2023-12-20T01:00:41;6.90;99.90
63313;DHT22;49442;45.640;13.812;2023-12-20T01:03:09;6.80;99.90
63313;DHT22;49442;45.640;13.812;2023-12-20T01:05:35;6.80;99.90
63313;DHT22;49442;45.640;13.812;2023-12-20T01:08:01;6.80;99.90
63313;DHT22;49442;45.640;13.812;2023-12-20T01:10:28;6.80;99.90
63313;DHT22;49442;45.640;13.812;2023-12-20T01:12:55;6.80;99.90
63313;DHT22;49442;45.640;13.812;2023-12-20T01:15:20;6.70;99.90
63313;DHT22;49442;45.640;13.812;2023-12-20T01:17:46;6.70;99.90
63313;DHT22;49442;45.640;13.812;2023-12-20T01:20:13;6.70;99.90
63313;DHT22;49442;45.640;13.812;2023-12-20T01:22:38;6.70;99.90
63313;DHT22;49442;45.640;13.812;2023-12-20T01:25:04;6.60;99.90
63313;DHT22;49442;45.640;13.812;2023-12-20T01:27:30;6.50;99.90
63313;DHT22;49442;45.640;13.812;2023-12-20T01:29:56;6.50;99.90
63313;DHT22;49442;45.640;13.812;2023-12-20T01:32:22;6.50;99.90
63313;DHT22;49442;45.640;13.812;2023-12-20T01:34:48;6.50;99.90
63313;DHT22;49442;45.640;13.812;2023-12-20T01:37:14;6.50;99.90
63313;DHT22;49442;45.640;13.812;2023-12-20T01:39:40;6.40;99.90
63313;DHT22;49442;45.640;13.812;2023-12-20T01:42:05;6.50;99.90
63313;DHT22;49442;45.640;13.812;2023-12-20T01:44:31;6.40;99.90
63313;DHT22;49442;45.640;13.812;2023-12-20T01:46:57;6.40;99.90
63313;DHT22;49442;45.640;13.812;2023-12-20T01:49:23;6.40;99.90
63313;DHT22;49442;45.640;13.812;2023-12-20T01:51:49;6.50;99.90
63313;DHT22;49442;45.640;13.812;2023-12-20T01:54:15;6.50;99.90
63313;DHT22;49442;45.640;13.812;2023-12-20T01:56:41;6.50;99.90
63313;DHT22;49442;45.640;13.812;2023-12-20T01:59:08;6.50;99.90
63313;DHT22;49442;45.640;13.812;2023-12-20T02:01:35;6.60;99.90
63313;DHT22;49442;45.640;13.812;2023-12-20T02:04:02;6.60;99.90
63313;DHT22;49442;45.640;13.812;2023-12-20T02:06:31;6.60;99.90
63313;DHT22;49442;45.640;13.812;2023-12-20T02:08:59;6.70;99.90
63313;DHT22;49442;45.640;13.812;2023-12-20T02:11:25;6.70;99.90
63313;DHT22;49442;45.640;13.812;2023-12-20T02:13:52;6.70;99.90
63313;DHT22;49442;45.640;13.812;2023-12-20T02:16:18;6.70;99.90
63313;DHT22;49442;45.640;13.812;2023-12-20T02:18:44;6.60;99.90
63313;DHT22;49442;45.640;13.812;2023-12-20T02:21:10;6.60;99.90
63313;DHT22;49442;45.640;13.812;2023-12-20T02:23:36;6.70;99.90
63313;DHT22;49442;45.640;13.812;2023-12-20T02:26:03;6.90;99.90
63313;DHT22;49442;45.640;13.812;2023-12-20T02:28:30;6.90;99.90
63313;DHT22;49442;45.640;13.812;2023-12-20T02:30:56;6.90;99.90
63313;DHT22;49442;45.640;13.812;2023-12-20T02:33:21;6.90;99.90
63313;DHT22;49442;45.640;13.812;2023-12-20T02:35:47;6.90;99.90
63313;DHT22;49442;45.640;13.812;2023-12-20T02:38:13;6.80;99.90
63313;DHT22;49442;45.640;13.812;2023-12-20T02:40:38;6.60;99.90
63313;DHT22;49442;45.640;13.812;2023-12-20T02:43:04;6.50;99.90
63313;DHT22;49442;45.640;13.812;2023-12-20T02:45:30;6.40;99.90
63313;DHT22;49442;45.640;13.812;2023-12-20T02:47:56;6.40;99.90
63313;DHT22;49442;45.640;13.812;2023-12-20T02:50:21;6.50;99.90
63313;DHT22;49442;45.640;13.812;2023-12-20T02:52:47;6.50;99.90
63313;DHT22;49442;45.640;13.812;2023-12-20T02:55:13;6.60;99.90
63313;DHT22;49442;45.640;13.812;2023-12-20T02:57:39;6.50;99.90
63313;DHT22;49442;45.640;13.812;2023-12-20T03:00:09;6.50;99.90
63313;DHT22;49442;45.640;13.812;2023-12-20T03:02:36;6.40;99.90
63313;DHT22;49442;45.640;13.812;2023-12-20T03:05:02;6.30;99.90
63313;DHT22;49442;45.640;13.812;2023-12-20T03:07:28;6.30;99.90
63313;DHT22;49442;45.640;13.812;2023-12-20T03:09:54;6.30;99.90
63313;DHT22;49442;45.640;13.812;2023-12-20T03:12:19;6.30;99.90
63313;DHT22;49442;45.640;13.812;2023-12-20T03:14:45;6.30;99.90
63313;DHT22;49442;45.640;13.812;2023-12-20T03:17:11;6.30;99.90
63313;DHT22;49442;45.640;13.812;2023-12-20T03:19:36;6.20;99.90
63313;DHT22;49442;45.640;13.812;2023-12-20T03:22:02;6.20;99.90
63313;DHT22;49442;45.640;13.812;2023-12-20T03:24:28;6.10;99.90
63313;DHT22;49442;45.640;13.812;2023-12-20T03:26:53;6.00;99.90
63313;DHT22;49442;45.640;13.812;2023-12-20T03:29:19;6.00;99.90
63313;DHT22;49442;45.640;13.812;2023-12-20T03:31:45;6.00;99.90
63313;DHT22;49442;45.640;13.812;2023-12-20T03:34:11;6.10;99.90
63313;DHT22;49442;45.640;13.812;2023-12-20T03:36:37;6.10;99.90
63313;DHT22;49442;45.640;13.812;2023-12-20T03:39:03;6.20;99.90
63313;DHT22;49442;45.640;13.812;2023-12-20T03:41:29;6.30;99.90
63313;DHT22;49442;45.640;13.812;2023-12-20T03:43:54;6.30;99.90
63313;DHT22;49442;45.640;13.812;2023-12-20T03:46:20;6.40;99.90
63313;DHT22;49442;45.640;13.812;2023-12-20T03:48:46;6.40;99.90
63313;DHT22;49442;45.640;13.812;2023-12-20T03:51:11;6.50;99.90
63313;DHT22;49442;45.640;13.812;2023-12-20T03:53:37;6.50;99.90
63313;DHT22;49442;45.640;13.812;2023-12-20T03:56:03;6.50;99.90
63313;DHT22;49442;45.640;13.812;2023-12-20T03:58:29;6.50;99.90
63313;DHT22;49442;45.640;13.812;2023-12-20T04:00:54;6.50;99.90
63313;DHT22;49442;45.640;13.812;2023-12-20T04:03:20;6.40;99.90
63313;DHT22;49442;45.640;13.812;2023-12-20T04:05:46;6.40;99.90
63313;DHT22;49442;45.640;13.812;2023-12-20T04:08:12;6.40;99.90
63313;DHT22;49442;45.640;13.812;2023-12-20T04:10:37;6.40;99.90
63313;DHT22;49442;45.640;13.812;2023-12-20T04:13:04;6.50;99.90
63313;DHT22;49442;45.640;13.812;2023-12-20T04:15:29;6.50;99.90
63313;DHT22;49442;45.640;13.812;2023-12-20T04:17:55;6.40;99.90
63313;DHT22;49442;45.640;13.812;2023-12-20T04:20:21;6.40;99.90
63313;DHT22;49442;45.640;13.812;2023-12-20T04:22:46;6.40;99.90
63313;DHT22;49442;45.640;13.812;2023-12-20T04:25:12;6.40;99.90
63313;DHT22;49442;45.640;13.812;2023-12-20T04:27:38;6.50;99.90
63313;DHT22;49442;45.640;13.812;2023-12-20T04:30:04;6.50;99.90
63313;DHT22;49442;45.640;13.812;2023-12-20T04:32:30;6.50;99.90
63313;DHT22;49442;45.640;13.812;2023-12-20T04:34:55;6.40;99.90
63313;DHT22;49442;45.640;13.812;2023-12-20T04:37:21;6.40;99.90
63313;DHT22;49442;45.640;13.812;2023-12-20T04:39:47;6.40;99.90
63313;DHT22;49442;45.640;13.812;2023-12-20T04:42:12;6.40;99.90
63313;DHT22;49442;45.640;13.812;2023-12-20T04:44:38;6.40;99.90
63313;DHT22;49442;45.640;13.812;2023-12-20T04:47:04;6.40;99.90
63313;DHT22;49442;45.640;13.812;2023-12-20T04:49:29;6.40;99.90
63313;DHT22;49442;45.640;13.812;2023-12-20T04:51:55;6.40;99.90
63313;DHT22;49442;45.640;13.812;2023-12-20T04:54:21;6.40;99.90
63313;DHT22;49442;45.640;13.812;2023-12-20T04:56:47;6.40;99.90
63313;DHT22;49442;45.640;13.812;2023-12-20T04:59:13;6.40;99.90
63313;DHT22;49442;45.640;13.812;2023-12-20T05:01:39;6.40;99.90
63313;DHT22;49442;45.640;13.812;2023-12-20T05:04:04;6.40;99.90
63313;DHT22;49442;45.640;13.812;2023-12-20T05:06:30;6.40;99.90
63313;DHT22;49442;45.640;13.812;2023-12-20T05:08:56;6.40;99.90
63313;DHT22;49442;45.640;13.812;2023-12-20T05:11:21;6.40;99.90
63313;DHT22;49442;45.640;13.812;2023-12-20T05:13:47;6.30;99.90
63313;DHT22;49442;45.640;13.812;2023-12-20T05:16:13;6.30;99.90
63313;DHT22;49442;45.640;13.812;2023-12-20T05:18:40;6.30;99.90
63313;DHT22;49442;45.640;13.812;2023-12-20T05:21:06;6.30;99.90
63313;DHT22;49442;45.640;13.812;2023-12-20T05:23:32;6.30;99.90
63313;DHT22;49442;45.640;13.812;2023-12-20T05:25:57;6.30;99.90
63313;DHT22;49442;45.640;13.812;2023-12-20T05:28:24;6.30;99.90
63313;DHT22;49442;45.640;13.812;2023-12-20T05:30:50;6.30;99.90
63313;DHT22;49442;45.640;13.812;2023-12-20T05:33:15;6.20;99.90
63313;DHT22;49442;45.640;13.812;2023-12-20T05:35:41;6.30;99.90
63313;DHT22;49442;45.640;13.812;2023-12-20T05:38:07;6.20;99.90
63313;DHT22;49442;45.640;13.812;2023-12-20T05:40:32;6.10;99.90
63313;DHT22;49442;45.640;13.812;2023-12-20T05:42:58;6.10;99.90
63313;DHT22;49442;45.640;13.812;2023-12-20T05:45:24;6.10;99.90
63313;DHT22;49442;45.640;13.812;2023-12-20T05:47:50;6.10;99.90
63313;DHT22;49442;45.640;13.812;2023-12-20T05:50:16;6.10;99.90
63313;DHT22;49442;45.640;13.812;2023-12-20T05:52:41;6.10;99.90
63313;DHT22;49442;45.640;13.812;2023-12-20T05:55:07;6.10;99.90
63313;DHT22;49442;45.640;13.812;2023-12-20T05:57:33;6.20;99.90
63313;DHT22;49442;45.640;13.812;2023-12-20T05:59:58;6.30;99.90
63313;DHT22;49442;45.640;13.812;2023-12-20T06:02:24;6.40;99.90
63313;DHT22;49442;45.640;13.812;2023-12-20T06:04:50;6.40;99.90
63313;DHT22;49442;45.640;13.812;2023-12-20T06:07:16;6.40;99.90
63313;DHT22;49442;45.640;13.812;2023-12-20T06:09:42;6.30;99.90
63313;DHT22;49442;45.640;13.812;2023-12-20T06:12:08;6.20;99.90
63313;DHT22;49442;45.640;13.812;2023-12-20T06:14:34;6.10;99.90
63313;DHT22;49442;45.640;13.812;2023-12-20T06:17:00;6.10;99.90
63313;DHT22;49442;45.640;13.812;2023-12-20T06:19:27;6.10;99.90
63313;DHT22;49442;45.640;13.812;2023-12-20T06:21:52;6.20;99.90
63313;DHT22;49442;45.640;13.812;2023-12-20T06:24:18;6.30;99.90
63313;DHT22;49442;45.640;13.812;2023-12-20T06:26:43;6.30;99.90
63313;DHT22;49442;45.640;13.812;2023-12-20T06:29:09;6.40;99.90
63313;DHT22;49442;45.640;13.812;2023-12-20T06:31:35;6.30;99.90
63313;DHT22;49442;45.640;13.812;2023-12-20T06:34:00;6.30;99.90
63313;DHT22;49442;45.640;13.812;2023-12-20T06:36:26;6.20;99.90
63313;DHT22;49442;45.640;13.812;2023-12-20T06:38:52;6.20;99.90
63313;DHT22;49442;45.640;13.812;2023-12-20T06:41:18;6.40;99.90
63313;DHT22;49442;45.640;13.812;2023-12-20T06:43:43;6.40;99.90
63313;DHT22;49442;45.640;13.812;2023-12-20T06:46:09;6.40;99.90
63313;DHT22;49442;45.640;13.812;2023-12-20T06:48:35;6.40;99.90
63313;DHT22;49442;45.640;13.812;2023-12-20T06:51:01;6.40;99.90
63313;DHT22;49442;45.640;13.812;2023-12-20T06:53:30;6.50;99.90
63313;DHT22;49442;45.640;13.812;2023-12-20T06:55:56;6.50;99.90
63313;DHT22;49442;45.640;13.812;2023-12-20T06:58:22;6.60;99.90
63313;DHT22;49442;45.640;13.812;2023-12-20T07:00:50;6.70;99.90
63313;DHT22;49442;45.640;13.812;2023-12-20T07:03:17;6.70;99.90
63313;DHT22;49442;45.640;13.812;2023-12-20T07:05:43;6.80;99.90
63313;DHT22;49442;45.640;13.812;2023-12-20T07:08:09;6.80;99.90
63313;DHT22;49442;45.640;13.812;2023-12-20T07:10:36;6.90;99.90
63313;DHT22;49442;45.640;13.812;2023-12-20T07:13:02;6.90;99.90
63313;DHT22;49442;45.640;13.812;2023-12-20T07:15:27;6.90;99.90
63313;DHT22;49442;45.640;13.812;2023-12-20T07:17:55;6.90;99.90
63313;DHT22;49442;45.640;13.812;2023-12-20T07:20:20;6.90;99.90
63313;DHT22;49442;45.640;13.812;2023-12-20T07:22:46;6.90;99.90
63313;DHT22;49442;45.640;13.812;2023-12-20T07:25:12;6.90;99.90
63313;DHT22;49442;45.640;13.812;2023-12-20T07:27:38;6.90;99.90
63313;DHT22;49442;45.640;13.812;2023-12-20T07:30:04;6.90;99.90
63313;DHT22;49442;45.640;13.812;2023-12-20T07:32:29;7.00;99.90
63313;DHT22;49442;45.640;13.812;2023-12-20T07:34:55;7.00;99.90
63313;DHT22;49442;45.640;13.812;2023-12-20T07:37:25;7.00;99.90
63313;DHT22;49442;45.640;13.812;2023-12-20T07:39:53;7.10;99.90
63313;DHT22;49442;45.640;13.812;2023-12-20T07:42:19;7.10;99.90
63313;DHT22;49442;45.640;13.812;2023-12-20T07:44:45;7.20;99.90
63313;DHT22;49442;45.640;13.812;2023-12-20T07:47:14;7.20;99.90
63313;DHT22;49442;45.640;13.812;2023-12-20T07:49:44;7.20;99.90
63313;DHT22;49442;45.640;13.812;2023-12-20T07:52:10;7.30;99.90
63313;DHT22;49442;45.640;13.812;2023-12-20T07:54:36;7.40;99.90
63313;DHT22;49442;45.640;13.812;2023-12-20T07:57:03;7.50;99.90
63313;DHT22;49442;45.640;13.812;2023-12-20T07:59:28;7.60;99.90
63313;DHT22;49442;45.640;13.812;2023-12-20T08:01:54;7.70;99.90
63313;DHT22;49442;45.640;13.812;2023-12-20T08:04:20;7.90;99.90
63313;DHT22;49442;45.640;13.812;2023-12-20T08:06:45;8.00;99.90
63313;DHT22;49442;45.640;13.812;2023-12-20T08:09:11;8.20;99.90
63313;DHT22;49442;45.640;13.812;2023-12-20T08:11:37;8.60;99.90
63313;DHT22;49442;45.640;13.812;2023-12-20T08:14:02;8.90;99.90
63313;DHT22;49442;45.640;13.812;2023-12-20T08:16:28;9.30;99.90
63313;DHT22;49442;45.640;13.812;2023-12-20T08:18:54;9.70;99.90
63313;DHT22;49442;45.640;13.812;2023-12-20T08:21:22;10.00;99.90
63313;DHT22;49442;45.640;13.812;2023-12-20T08:23:48;10.50;99.90
63313;DHT22;49442;45.640;13.812;2023-12-20T08:26:18;10.90;99.90
63313;DHT22;49442;45.640;13.812;2023-12-20T08:28:46;11.30;99.90
63313;DHT22;49442;45.640;13.812;2023-12-20T08:31:16;12.20;99.90
63313;DHT22;49442;45.640;13.812;2023-12-20T08:33:46;12.00;99.90
63313;DHT22;49442;45.640;13.812;2023-12-20T08:36:12;11.80;99.90
63313;DHT22;49442;45.640;13.812;2023-12-20T08:38:38;11.50;99.90
63313;DHT22;49442;45.640;13.812;2023-12-20T08:41:04;11.20;99.90
63313;DHT22;49442;45.640;13.812;2023-12-20T08:43:31;10.90;99.90
63313;DHT22;49442;45.640;13.812;2023-12-20T08:45:57;10.70;99.90
63313;DHT22;49442;45.640;13.812;2023-12-20T08:48:23;10.50;99.90
63313;DHT22;49442;45.640;13.812;2023-12-20T08:50:48;10.30;99.90
63313;DHT22;49442;45.640;13.812;2023-12-20T08:53:16;10.30;99.90
63313;DHT22;49442;45.640;13.812;2023-12-20T08:55:42;10.20;99.90
63313;DHT22;49442;45.640;13.812;2023-12-20T08:58:08;10.10;99.90
63313;DHT22;49442;45.640;13.812;2023-12-20T09:00:34;10.00;99.90
63313;DHT22;49442;45.640;13.812;2023-12-20T09:03:01;9.90;99.90
63313;DHT22;49442;45.640;13.812;2023-12-20T09:05:26;9.80;99.90
63313;DHT22;49442;45.640;13.812;2023-12-20T09:07:52;9.80;99.90
63313;DHT22;49442;45.640;13.812;2023-12-20T09:10:18;9.70;99.90
63313;DHT22;49442;45.640;13.812;2023-12-20T09:12:49;9.60;99.90
63313;DHT22;49442;45.640;13.812;2023-12-20T09:15:14;9.60;99.90
63313;DHT22;49442;45.640;13.812;2023-12-20T09:17:40;9.60;99.90
63313;DHT22;49442;45.640;13.812;2023-12-20T09:20:07;9.60;99.90
63313;DHT22;49442;45.640;13.812;2023-12-20T09:22:34;9.60;99.90
63313;DHT22;49442;45.640;13.812;2023-12-20T09:25:00;9.50;99.90
63313;DHT22;49442;45.640;13.812;2023-12-20T09:27:27;9.60;99.90
63313;DHT22;49442;45.640;13.812;2023-12-20T09:29:53;9.60;99.90
63313;DHT22;49442;45.640;13.812;2023-12-20T09:32:19;9.60;99.90
63313;DHT22;49442;45.640;13.812;2023-12-20T09:34:47;9.70;99.90
63313;DHT22;49442;45.640;13.812;2023-12-20T09:37:13;9.70;99.90
63313;DHT22;49442;45.640;13.812;2023-12-20T09:39:39;9.80;99.90
63313;DHT22;49442;45.640;13.812;2023-12-20T09:42:05;9.90;99.90
63313;DHT22;49442;45.640;13.812;2023-12-20T09:44:32;10.00;99.90
63313;DHT22;49442;45.640;13.812;2023-12-20T09:47:02;10.10;99.90
63313;DHT22;49442;45.640;13.812;2023-12-20T09:49:30;10.20;99.90
63313;DHT22;49442;45.640;13.812;2023-12-20T09:51:56;10.30;99.90
63313;DHT22;49442;45.640;13.812;2023-12-20T09:54:23;10.40;99.90
63313;DHT22;49442;45.640;13.812;2023-12-20T09:56:50;10.50;99.90
63313;DHT22;49442;45.640;13.812;2023-12-20T09:59:15;10.60;99.90
63313;DHT22;49442;45.640;13.812;2023-12-20T10:01:42;10.70;99.90
63313;DHT22;49442;45.640;13.812;2023-12-20T10:04:09;10.70;99.90
63313;DHT22;49442;45.640;13.812;2023-12-20T10:06:41;10.70;99.90
63313;DHT22;49442;45.640;13.812;2023-12-20T10:09:07;10.70;99.90
63313;DHT22;49442;45.640;13.812;2023-12-20T10:11:34;10.80;99.90
63313;DHT22;49442;45.640;13.812;2023-12-20T10:14:00;10.90;99.90
63313;DHT22;49442;45.640;13.812;2023-12-20T10:16:29;11.10;99.90
63313;DHT22;49442;45.640;13.812;2023-12-20T10:18:55;11.30;99.90
63313;DHT22;49442;45.640;13.812;2023-12-20T10:21:22;11.40;99.90
63313;DHT22;49442;45.640;13.812;2023-12-20T10:23:50;11.40;99.90
63313;DHT22;49442;45.640;13.812;2023-12-20T10:26:23;11.40;99.90
63313;DHT22;49442;45.640;13.812;2023-12-20T10:29:01;11.40;99.90
63313;DHT22;49442;45.640;13.812;2023-12-20T10:31:31;11.40;99.90
63313;DHT22;49442;45.640;13.812;2023-12-20T10:33:58;11.30;99.90
63313;DHT22;49442;45.640;13.812;2023-12-20T10:36:29;11.30;99.90
63313;DHT22;49442;45.640;13.812;2023-12-20T10:38:56;11.20;99.90
63313;DHT22;49442;45.640;13.812;2023-12-20T10:41:28;11.10;99.90
63313;DHT22;49442;45.640;13.812;2023-12-20T10:44:04;11.10;99.90
63313;DHT22;49442;45.640;13.812;2023-12-20T10:46:34;11.00;99.90
63313;DHT22;49442;45.640;13.812;2023-12-20T10:49:02;11.00;99.90
63313;DHT22;49442;45.640;13.812;2023-12-20T10:51:28;11.00;99.90
63313;DHT22;49442;45.640;13.812;2023-12-20T10:53:55;10.90;99.90
63313;DHT22;49442;45.640;13.812;2023-12-20T10:56:21;10.90;99.90
63313;DHT22;49442;45.640;13.812;2023-12-20T10:58:49;10.90;99.90
63313;DHT22;49442;45.640;13.812;2023-12-20T11:01:16;10.90;99.90
63313;DHT22;49442;45.640;13.812;2023-12-20T11:03:51;11.00;99.90
63313;DHT22;49442;45.640;13.812;2023-12-20T11:08:53;11.10;99.90
63313;DHT22;49442;45.640;13.812;2023-12-20T11:11:23;11.20;99.90
63313;DHT22;49442;45.640;13.812;2023-12-20T11:14:06;11.20;99.90
63313;DHT22;49442;45.640;13.812;2023-12-20T11:16:37;11.30;99.90
63313;DHT22;49442;45.640;13.812;2023-12-20T11:19:06;11.40;99.90
63313;DHT22;49442;45.640;13.812;2023-12-20T11:21:32;11.40;99.90
63313;DHT22;49442;45.640;13.812;2023-12-20T11:23:59;11.50;99.90
63313;DHT22;49442;45.640;13.812;2023-12-20T11:26:29;11.50;99.90
63313;DHT22;49442;45.640;13.812;2023-12-20T11:32:03;11.70;99.90
63313;DHT22;49442;45.640;13.812;2023-12-20T11:34:33;11.90;99.90
63313;DHT22;49442;45.640;13.812;2023-12-20T11:37:02;11.90;99.90
63313;DHT22;49442;45.640;13.812;2023-12-20T11:39:28;11.90;99.90
63313;DHT22;49442;45.640;13.812;2023-12-20T11:41:56;11.90;99.90
63313;DHT22;49442;45.640;13.812;2023-12-20T11:44:24;11.90;99.90
63313;DHT22;49442;45.640;13.812;2023-12-20T11:46:50;11.90;99.90
63313;DHT22;49442;45.640;13.812;2023-12-20T11:49:16;11.90;99.90
63313;DHT22;49442;45.640;13.812;2023-12-20T11:51:42;11.90;99.90
63313;DHT22;49442;45.640;13.812;2023-12-20T11:54:09;11.90;99.90
63313;DHT22;49442;45.640;13.812;2023-12-20T11:56:36;11.90;99.90
63313;DHT22;49442;45.640;13.812;2023-12-20T11:59:01;11.90;99.90
63313;DHT22;49442;45.640;13.812;2023-12-20T12:01:27;11.90;99.90
63313;DHT22;49442;45.640;13.812;2023-12-20T12:04:06;11.80;99.90
63313;DHT22;49442;45.640;13.812;2023-12-20T12:06:32;11.80;99.90
63313;DHT22;49442;45.640;13.812;2023-12-20T12:08:57;11.80;99.90
63313;DHT22;49442;45.640;13.812;2023-12-20T12:11:23;11.70;99.90
63313;DHT22;49442;45.640;13.812;2023-12-20T12:13:49;11.80;99.90
63313;DHT22;49442;45.640;13.812;2023-12-20T12:16:19;11.80;99.90
63313;DHT22;49442;45.640;13.812;2023-12-20T12:18:45;11.80;99.90
63313;DHT22;49442;45.640;13.812;2023-12-20T12:21:19;11.80;99.90
63313;DHT22;49442;45.640;13.812;2023-12-20T12:23:46;11.80;99.90
63313;DHT22;49442;45.640;13.812;2023-12-20T12:26:11;11.80;99.90
63313;DHT22;49442;45.640;13.812;2023-12-20T12:28:40;11.70;99.90
63313;DHT22;49442;45.640;13.812;2023-12-20T12:31:05;11.70;99.90
63313;DHT22;49442;45.640;13.812;2023-12-20T12:33:31;11.70;99.90
63313;DHT22;49442;45.640;13.812;2023-12-20T12:35:57;11.70;99.90
63313;DHT22;49442;45.640;13.812;2023-12-20T12:38:24;11.70;99.90
63313;DHT22;49442;45.640;13.812;2023-12-20T12:40:50;11.70;99.90
63313;DHT22;49442;45.640;13.812;2023-12-20T12:43:16;11.70;99.90
63313;DHT22;49442;45.640;13.812;2023-12-20T12:45:41;11.70;99.90
63313;DHT22;49442;45.640;13.812;2023-12-20T12:48:07;11.70;99.90
63313;DHT22;49442;45.640;13.812;2023-12-20T12:50:33;11.70;99.90
63313;DHT22;49442;45.640;13.812;2023-12-20T12:52:58;11.70;99.90
63313;DHT22;49442;45.640;13.812;2023-12-20T12:55:24;11.70;99.90
63313;DHT22;49442;45.640;13.812;2023-12-20T12:57:50;11.70;99.90
63313;DHT22;49442;45.640;13.812;2023-12-20T13:00:16;11.70;99.90
63313;DHT22;49442;45.640;13.812;2023-12-20T13:02:41;11.70;99.90
63313;DHT22;49442;45.640;13.812;2023-12-20T13:05:08;11.70;99.90
63313;DHT22;49442;45.640;13.812;2023-12-20T13:07:34;11.70;99.90
63313;DHT22;49442;45.640;13.812;2023-12-20T13:09:59;11.70;99.90
63313;DHT22;49442;45.640;13.812;2023-12-20T13:12:26;11.60;99.90
63313;DHT22;49442;45.640;13.812;2023-12-20T13:14:51;11.70;99.90
63313;DHT22;49442;45.640;13.812;2023-12-20T13:17:17;11.70;99.90
63313;DHT22;49442;45.640;13.812;2023-12-20T13:19:43;11.70;99.90
63313;DHT22;49442;45.640;13.812;2023-12-20T13:22:08;11.70;99.90
63313;DHT22;49442;45.640;13.812;2023-12-20T13:24:34;11.70;99.90
63313;DHT22;49442;45.640;13.812;2023-12-20T13:27:00;11.60;99.90
63313;DHT22;49442;45.640;13.812;2023-12-20T13:29:26;11.60;99.90
63313;DHT22;49442;45.640;13.812;2023-12-20T13:31:54;11.60;99.90
63313;DHT22;49442;45.640;13.812;2023-12-20T13:34:20;11.60;99.90
63313;DHT22;49442;45.640;13.812;2023-12-20T13:36:46;11.50;99.90
63313;DHT22;49442;45.640;13.812;2023-12-20T13:39:13;11.50;99.90
63313;DHT22;49442;45.640;13.812;2023-12-20T13:41:39;11.50;99.90
63313;DHT22;49442;45.640;13.812;2023-12-20T13:44:05;11.50;99.90
63313;DHT22;49442;45.640;13.812;2023-12-20T13:46:31;11.50;99.90
63313;DHT22;49442;45.640;13.812;2023-12-20T13:48:56;11.50;99.90
63313;DHT22;49442;45.640;13.812;2023-12-20T13:51:22;11.50;99.90
63313;DHT22;49442;45.640;13.812;2023-12-20T13:53:48;11.50;99.90
63313;DHT22;49442;45.640;13.812;2023-12-20T13:56:15;11.50;99.90
63313;DHT22;49442;45.640;13.812;2023-12-20T13:58:41;11.40;99.90
63313;DHT22;49442;45.640;13.812;2023-12-20T14:01:10;11.40;99.90
63313;DHT22;49442;45.640;13.812;2023-12-20T14:03:36;11.40;99.90
63313;DHT22;49442;45.640;13.812;2023-12-20T14:06:02;11.40;99.90
63313;DHT22;49442;45.640;13.812;2023-12-20T14:08:27;11.40;99.90
63313;DHT22;49442;45.640;13.812;2023-12-20T14:10:53;11.40;99.90
63313;DHT22;49442;45.640;13.812;2023-12-20T14:13:19;11.40;99.90
63313;DHT22;49442;45.640;13.812;2023-12-20T14:15:46;11.40;99.90
63313;DHT22;49442;45.640;13.812;2023-12-20T14:18:12;11.40;99.90
63313;DHT22;49442;45.640;13.812;2023-12-20T14:20:40;11.40;99.90
63313;DHT22;49442;45.640;13.812;2023-12-20T14:23:08;11.40;99.90
63313;DHT22;49442;45.640;13.812;2023-12-20T14:25:35;11.40;99.90
63313;DHT22;49442;45.640;13.812;2023-12-20T14:28:03;11.40;99.90
63313;DHT22;49442;45.640;13.812;2023-12-20T14:30:29;11.40;99.90
63313;DHT22;49442;45.640;13.812;2023-12-20T14:32:54;11.30;99.90
63313;DHT22;49442;45.640;13.812;2023-12-20T14:35:20;11.30;99.90
63313;DHT22;49442;45.640;13.812;2023-12-20T14:37:46;11.30;99.90
63313;DHT22;49442;45.640;13.812;2023-12-20T14:40:11;11.30;99.90
63313;DHT22;49442;45.640;13.812;2023-12-20T14:42:41;11.30;99.90
63313;DHT22;49442;45.640;13.812;2023-12-20T14:45:07;11.30;99.90
63313;DHT22;49442;45.640;13.812;2023-12-20T14:47:33;11.30;99.90
63313;DHT22;49442;45.640;13.812;2023-12-20T14:49:59;11.30;99.90
63313;DHT22;49442;45.640;13.812;2023-12-20T14:52:24;11.30;99.90
63313;DHT22;49442;45.640;13.812;2023-12-20T14:54:50;11.30;99.90
63313;DHT22;49442;45.640;13.812;2023-12-20T14:57:16;11.20;99.90
63313;DHT22;49442;45.640;13.812;2023-12-20T14:59:41;11.30;99.90
63313;DHT22;49442;45.640;13.812;2023-12-20T15:02:09;11.20;99.90
63313;DHT22;49442;45.640;13.812;2023-12-20T15:04:34;11.20;99.90
63313;DHT22;49442;45.640;13.812;2023-12-20T15:07:00;11.10;99.90
63313;DHT22;49442;45.640;13.812;2023-12-20T15:09:26;11.10;99.90
63313;DHT22;49442;45.640;13.812;2023-12-20T15:11:54;11.10;99.90
63313;DHT22;49442;45.640;13.812;2023-12-20T15:14:20;11.10;99.90
63313;DHT22;49442;45.640;13.812;2023-12-20T15:16:46;11.00;99.90
63313;DHT22;49442;45.640;13.812;2023-12-20T15:19:15;11.00;99.90
63313;DHT22;49442;45.640;13.812;2023-12-20T15:21:41;11.00;99.90
63313;DHT22;49442;45.640;13.812;2023-12-20T15:24:13;11.00;99.90
63313;DHT22;49442;45.640;13.812;2023-12-20T15:26:45;11.00;99.90